sensor_id;sensor_type;location;lat;lon;timestamp;temperature;humidity
65040;HTU21D;51606;45.000;38.612;2024-01-15T00:01:30;2.83;83.30
65040;HTU21D;51606;45.000;38.612;2024-01-15T00:03:56;2.81;83.37
65040;HTU21D;51606;45.000;38.612;2024-01-15T00:06:22;2.81;83.34
65040;HTU21D;51606;45.000;38.612;2024-01-15T00:08:49;2.79;83.34
65040;HTU21D;51606;45.000;38.612;2024-01-15T00:11:15;2.78;83.36
65040;HTU21D;51606;45.000;38.612;2024-01-15T00:13:41;2.75;83.35
65040;HTU21D;51606;45.000;38.612;2024-01-15T00:16:08;2.73;83.35
65040;HTU21D;51606;45.000;38.612;2024-01-15T00:18:34;2.73;83.38
65040;HTU21D;51606;45.000;38.612;2024-01-15T00:21:00;2.76;83.36
65040;HTU21D;51606;45.000;38.612;2024-01-15T00:23:26;2.79;83.34
65040;HTU21D;51606;45.000;38.612;2024-01-15T00:25:53;2.78;83.36
65040;HTU21D;51606;45.000;38.612;2024-01-15T00:28:19;2.69;83.48
65040;HTU21D;51606;45.000;38.612;2024-01-15T00:30:45;2.61;83.59
65040;HTU21D;51606;45.000;38.612;2024-01-15T00:33:12;2.53;83.78
65040;HTU21D;51606;45.000;38.612;2024-01-15T00:35:38;2.47;83.87
65040;HTU21D;51606;45.000;38.612;2024-01-15T00:38:05;2.44;83.96
65040;HTU21D;51606;45.000;38.612;2024-01-15T00:40:31;2.42;83.90
65040;HTU21D;51606;45.000;38.612;2024-01-15T00:42:57;2.40;83.90
65040;HTU21D;51606;45.000;38.612;2024-01-15T00:45:23;2.42;83.95
65040;HTU21D;51606;45.000;38.612;2024-01-15T00:47:50;2.46;83.92
65040;HTU21D;51606;45.000;38.612;2024-01-15T00:58:20;2.73;83.45
65040;HTU21D;51606;45.000;38.612;2024-01-15T01:00:50;2.79;83.39
65040;HTU21D;51606;45.000;38.612;2024-01-15T01:03:16;2.80;83.34
65040;HTU21D;51606;45.000;38.612;2024-01-15T01:05:42;2.82;83.34
65040;HTU21D;51606;45.000;38.612;2024-01-15T01:08:10;2.85;83.39
65040;HTU21D;51606;45.000;38.612;2024-01-15T01:10:36;2.96;83.40
65040;HTU21D;51606;45.000;38.612;2024-01-15T01:13:03;3.10;83.17
65040;HTU21D;51606;45.000;38.612;2024-01-15T01:15:29;3.20;83.02
65040;HTU21D;51606;45.000;38.612;2024-01-15T01:17:56;3.30;82.90
65040;HTU21D;51606;45.000;38.612;2024-01-15T01:20:22;3.41;82.78
65040;HTU21D;51606;45.000;38.612;2024-01-15T01:22:48;3.49;82.59
65040;HTU21D;51606;45.000;38.612;2024-01-15T01:25:15;3.53;82.52
65040;HTU21D;51606;45.000;38.612;2024-01-15T01:27:41;3.48;82.51
65040;HTU21D;51606;45.000;38.612;2024-01-15T01:30:08;3.43;82.58
65040;HTU21D;51606;45.000;38.612;2024-01-15T01:32:35;3.38;82.66
65040;HTU21D;51606;45.000;38.612;2024-01-15T01:35:01;3.39;82.70
65040;HTU21D;51606;45.000;38.612;2024-01-15T01:37:28;3.43;82.57
65040;HTU21D;51606;45.000;38.612;2024-01-15T01:39:54;3.47;82.21
65040;HTU21D;51606;45.000;38.612;2024-01-15T01:42:20;3.48;82.15
65040;HTU21D;51606;45.000;38.612;2024-01-15T01:44:47;3.46;82.12
65040;HTU21D;51606;45.000;38.612;2024-01-15T01:47:14;3.46;82.14
65040;HTU21D;51606;45.000;38.612;2024-01-15T01:49:41;3.44;82.17
65040;HTU21D;51606;45.000;38.612;2024-01-15T01:52:09;3.43;82.15
65040;HTU21D;51606;45.000;38.612;2024-01-15T01:54:35;3.39;82.09
65040;HTU21D;51606;45.000;38.612;2024-01-15T01:57:03;3.42;81.95
65040;HTU21D;51606;45.000;38.612;2024-01-15T01:59:30;3.53;81.85
65040;HTU21D;51606;45.000;38.612;2024-01-15T02:02:00;3.54;81.84
65040;HTU21D;51606;45.000;38.612;2024-01-15T02:04:30;3.52;81.87
65040;HTU21D;51606;45.000;38.612;2024-01-15T02:06:57;3.46;81.94
65040;HTU21D;51606;45.000;38.612;2024-01-15T02:09:23;3.44;82.02
65040;HTU21D;51606;45.000;38.612;2024-01-15T02:11:50;3.42;82.05
65040;HTU21D;51606;45.000;38.612;2024-01-15T02:14:16;3.39;82.08
65040;HTU21D;51606;45.000;38.612;2024-01-15T02:16:42;3.39;82.10
65040;HTU21D;51606;45.000;38.612;2024-01-15T02:19:15;3.36;82.10
65040;HTU21D;51606;45.000;38.612;2024-01-15T02:21:43;3.38;82.10
65040;HTU21D;51606;45.000;38.612;2024-01-15T02:24:10;3.38;82.08
65040;HTU21D;51606;45.000;38.612;2024-01-15T02:26:37;3.39;82.08
65040;HTU21D;51606;45.000;38.612;2024-01-15T02:29:06;3.40;82.07
65040;HTU21D;51606;45.000;38.612;2024-01-15T02:31:34;3.40;82.08
65040;HTU21D;51606;45.000;38.612;2024-01-15T02:34:01;3.41;82.07
65040;HTU21D;51606;45.000;38.612;2024-01-15T02:36:27;3.41;82.06
65040;HTU21D;51606;45.000;38.612;2024-01-15T02:38:53;3.41;82.06
65040;HTU21D;51606;45.000;38.612;2024-01-15T02:41:20;3.40;82.04
65040;HTU21D;51606;45.000;38.612;2024-01-15T02:43:46;3.33;82.07
65040;HTU21D;51606;45.000;38.612;2024-01-15T02:46:12;3.27;82.15
65040;HTU21D;51606;45.000;38.612;2024-01-15T02:48:39;3.18;82.26
65040;HTU21D;51606;45.000;38.612;2024-01-15T02:51:05;3.12;82.34
65040;HTU21D;51606;45.000;38.612;2024-01-15T02:53:31;2.99;82.42
65040;HTU21D;51606;45.000;38.612;2024-01-15T02:55:58;2.85;82.60
65040;HTU21D;51606;45.000;38.612;2024-01-15T02:58:24;2.73;82.80
65040;HTU21D;51606;45.000;38.612;2024-01-15T03:00:50;2.64;82.94
65040;HTU21D;51606;45.000;38.612;2024-01-15T03:03:17;2.52;83.01
65040;HTU21D;51606;45.000;38.612;2024-01-15T03:05:43;2.43;83.10
65040;HTU21D;51606;45.000;38.612;2024-01-15T03:08:09;2.37;83.14
65040;HTU21D;51606;45.000;38.612;2024-01-15T03:10:36;2.31;83.21
65040;HTU21D;51606;45.000;38.612;2024-01-15T03:13:02;2.32;83.24
65040;HTU21D;51606;45.000;38.612;2024-01-15T03:15:29;2.34;83.16
65040;HTU21D;51606;45.000;38.612;2024-01-15T03:17:55;2.34;83.05
65040;HTU21D;51606;45.000;38.612;2024-01-15T03:20:21;2.31;83.00
65040;HTU21D;51606;45.000;38.612;2024-01-15T03:22:48;2.28;83.07
65040;HTU21D;51606;45.000;38.612;2024-01-15T03:25:14;2.24;83.06
65040;HTU21D;51606;45.000;38.612;2024-01-15T03:27:41;2.21;83.10
65040;HTU21D;51606;45.000;38.612;2024-01-15T03:30:07;2.17;83.21
65040;HTU21D;51606;45.000;38.612;2024-01-15T03:32:34;2.21;83.26
65040;HTU21D;51606;45.000;38.612;2024-01-15T03:35:00;2.23;83.22
65040;HTU21D;51606;45.000;38.612;2024-01-15T03:37:27;2.28;83.22
65040;HTU21D;51606;45.000;38.612;2024-01-15T03:39:53;2.31;83.21
65040;HTU21D;51606;45.000;38.612;2024-01-15T03:42:20;2.34;83.09
65040;HTU21D;51606;45.000;38.612;2024-01-15T03:44:46;2.31;83.07
65040;HTU21D;51606;45.000;38.612;2024-01-15T03:47:12;2.32;83.17
65040;HTU21D;51606;45.000;38.612;2024-01-15T03:49:39;2.34;83.21
65040;HTU21D;51606;45.000;38.612;2024-01-15T03:52:05;2.36;83.17
65040;HTU21D;51606;45.000;38.612;2024-01-15T03:54:31;2.36;83.20
65040;HTU21D;51606;45.000;38.612;2024-01-15T05:15:49;3.06;82.65
65040;HTU21D;51606;45.000;38.612;2024-01-15T05:18:16;3.17;82.70
65040;HTU21D;51606;45.000;38.612;2024-01-15T05:20:43;3.30;82.59
65040;HTU21D;51606;45.000;38.612;2024-01-15T05:23:09;3.41;82.54
65040;HTU21D;51606;45.000;38.612;2024-01-15T05:25:35;3.47;82.36
65040;HTU21D;51606;45.000;38.612;2024-01-15T05:28:02;3.48;82.29
65040;HTU21D;51606;45.000;38.612;2024-01-15T05:30:28;3.47;82.34
65040;HTU21D;51606;45.000;38.612;2024-01-15T05:32:54;3.47;82.40
65040;HTU21D;51606;45.000;38.612;2024-01-15T05:35:21;3.47;82.43
65040;HTU21D;51606;45.000;38.612;2024-01-15T05:37:47;3.45;82.48
65040;HTU21D;51606;45.000;38.612;2024-01-15T05:40:14;3.45;82.55
65040;HTU21D;51606;45.000;38.612;2024-01-15T05:42:41;3.47;82.56
65040;HTU21D;51606;45.000;38.612;2024-01-15T05:45:08;3.46;82.58
65040;HTU21D;51606;45.000;38.612;2024-01-15T05:47:34;3.46;82.60
65040;HTU21D;51606;45.000;38.612;2024-01-15T05:50:01;3.46;82.62
65040;HTU21D;51606;45.000;38.612;2024-01-15T05:52:28;3.47;82.66
65040;HTU21D;51606;45.000;38.612;2024-01-15T05:54:54;3.52;82.71
65040;HTU21D;51606;45.000;38.612;2024-01-15T05:57:21;3.57;82.63
65040;HTU21D;51606;45.000;38.612;2024-01-15T05:59:47;3.65;82.62
65040;HTU21D;51606;45.000;38.612;2024-01-15T06:02:13;3.72;82.48
65040;HTU21D;51606;45.000;38.612;2024-01-15T06:04:40;3.75;82.39
65040;HTU21D;51606;45.000;38.612;2024-01-15T06:07:06;3.74;82.39
65040;HTU21D;51606;45.000;38.612;2024-01-15T06:09:33;3.75;82.39
65040;HTU21D;51606;45.000;38.612;2024-01-15T06:11:59;3.73;82.44
65040;HTU21D;51606;45.000;38.612;2024-01-15T06:14:25;3.73;82.46
65040;HTU21D;51606;45.000;38.612;2024-01-15T06:16:52;3.70;82.50
65040;HTU21D;51606;45.000;38.612;2024-01-15T06:19:18;3.69;82.55
65040;HTU21D;51606;45.000;38.612;2024-01-15T06:21:45;3.70;82.58
65040;HTU21D;51606;45.000;38.612;2024-01-15T06:24:11;3.71;82.57
65040;HTU21D;51606;45.000;38.612;2024-01-15T06:26:39;3.72;82.56
65040;HTU21D;51606;45.000;38.612;2024-01-15T06:29:05;3.75;82.54
65040;HTU21D;51606;45.000;38.612;2024-01-15T06:31:32;3.77;82.54
65040;HTU21D;51606;45.000;38.612;2024-01-15T06:33:58;3.93;83.10
65040;HTU21D;51606;45.000;38.612;2024-01-15T06:36:24;4.92;83.24
65040;HTU21D;51606;45.000;38.612;2024-01-15T06:38:51;6.27;81.81
65040;HTU21D;51606;45.000;38.612;2024-01-15T06:41:17;7.50;80.68
65040;HTU21D;51606;45.000;38.612;2024-01-15T06:43:43;8.47;80.08
65040;HTU21D;51606;45.000;38.612;2024-01-15T06:46:10;8.67;80.31
65040;HTU21D;51606;45.000;38.612;2024-01-15T06:48:36;8.96;80.94
65040;HTU21D;51606;45.000;38.612;2024-01-15T06:51:03;9.79;80.77
65040;HTU21D;51606;45.000;38.612;2024-01-15T06:53:29;10.74;79.89
65040;HTU21D;51606;45.000;38.612;2024-01-15T06:55:56;11.39;79.40
65040;HTU21D;51606;45.000;38.612;2024-01-15T06:58:22;11.67;78.96
65040;HTU21D;51606;45.000;38.612;2024-01-15T07:00:48;10.68;77.64
65040;HTU21D;51606;45.000;38.612;2024-01-15T07:03:14;9.23;79.48
65040;HTU21D;51606;45.000;38.612;2024-01-15T07:05:41;8.00;81.19
65040;HTU21D;51606;45.000;38.612;2024-01-15T07:08:07;7.09;82.74
65040;HTU21D;51606;45.000;38.612;2024-01-15T07:10:33;6.49;83.17
65040;HTU21D;51606;45.000;38.612;2024-01-15T07:13:00;6.19;83.50
65040;HTU21D;51606;45.000;38.612;2024-01-15T07:15:26;6.81;83.63
65040;HTU21D;51606;45.000;38.612;2024-01-15T07:17:53;8.15;81.30
65040;HTU21D;51606;45.000;38.612;2024-01-15T07:20:19;9.04;79.40
65040;HTU21D;51606;45.000;38.612;2024-01-15T07:22:45;9.44;79.00
65040;HTU21D;51606;45.000;38.612;2024-01-15T07:25:11;10.16;78.72
65040;HTU21D;51606;45.000;38.612;2024-01-15T07:27:38;10.95;78.09
65040;HTU21D;51606;45.000;38.612;2024-01-15T07:30:05;11.56;77.77
65040;HTU21D;51606;45.000;38.612;2024-01-15T07:32:32;12.04;77.15
65040;HTU21D;51606;45.000;38.612;2024-01-15T07:34:59;12.66;77.15
65040;HTU21D;51606;45.000;38.612;2024-01-15T07:37:25;13.07;76.61
65040;HTU21D;51606;45.000;38.612;2024-01-15T07:39:51;13.39;76.64
65040;HTU21D;51606;45.000;38.612;2024-01-15T07:42:18;13.96;76.66
65040;HTU21D;51606;45.000;38.612;2024-01-15T07:44:44;14.54;76.08
65040;HTU21D;51606;45.000;38.612;2024-01-15T07:47:10;14.45;75.40
65040;HTU21D;51606;45.000;38.612;2024-01-15T07:49:37;13.43;76.22
65040;HTU21D;51606;45.000;38.612;2024-01-15T07:52:04;12.26;78.01
65040;HTU21D;51606;45.000;38.612;2024-01-15T07:54:31;11.23;79.68
65040;HTU21D;51606;45.000;38.612;2024-01-15T07:57:00;10.42;80.78
65040;HTU21D;51606;45.000;38.612;2024-01-15T07:59:29;9.68;81.48
65040;HTU21D;51606;45.000;38.612;2024-01-15T08:01:55;9.09;81.88
65040;HTU21D;51606;45.000;38.612;2024-01-15T08:04:21;8.51;82.04
65040;HTU21D;51606;45.000;38.612;2024-01-15T08:06:48;7.96;82.16
65040;HTU21D;51606;45.000;38.612;2024-01-15T08:09:14;7.49;82.19
65040;HTU21D;51606;45.000;38.612;2024-01-15T08:11:41;7.05;82.16
65040;HTU21D;51606;45.000;38.612;2024-01-15T08:14:08;6.70;82.15
65040;HTU21D;51606;45.000;38.612;2024-01-15T08:16:36;6.39;82.09
65040;HTU21D;51606;45.000;38.612;2024-01-15T08:19:03;6.13;81.97
65040;HTU21D;51606;45.000;38.612;2024-01-15T08:21:30;5.94;81.85
65040;HTU21D;51606;45.000;38.612;2024-01-15T08:23:58;5.80;81.65
65040;HTU21D;51606;45.000;38.612;2024-01-15T08:26:25;5.76;81.47
65040;HTU21D;51606;45.000;38.612;2024-01-15T08:28:51;5.81;81.09
65040;HTU21D;51606;45.000;38.612;2024-01-15T08:31:18;5.83;80.69
65040;HTU21D;51606;45.000;38.612;2024-01-15T08:33:44;5.81;80.42
65040;HTU21D;51606;45.000;38.612;2024-01-15T08:36:11;5.76;80.34
65040;HTU21D;51606;45.000;38.612;2024-01-15T08:38:37;5.75;80.29
65040;HTU21D;51606;45.000;38.612;2024-01-15T08:41:03;5.74;80.19
65040;HTU21D;51606;45.000;38.612;2024-01-15T08:43:30;5.75;80.11
65040;HTU21D;51606;45.000;38.612;2024-01-15T08:54:03;6.81;79.77
65040;HTU21D;51606;45.000;38.612;2024-01-15T08:56:30;7.96;79.56
65040;HTU21D;51606;45.000;38.612;2024-01-15T08:58:56;8.58;78.72
65040;HTU21D;51606;45.000;38.612;2024-01-15T09:01:22;8.93;79.18
65040;HTU21D;51606;45.000;38.612;2024-01-15T09:03:49;9.69;79.35
65040;HTU21D;51606;45.000;38.612;2024-01-15T09:06:15;10.30;79.21
65040;HTU21D;51606;45.000;38.612;2024-01-15T09:08:41;10.65;79.27
65040;HTU21D;51606;45.000;38.612;2024-01-15T09:11:08;10.89;79.33
65040;HTU21D;51606;45.000;38.612;2024-01-15T09:13:34;10.95;79.62
65040;HTU21D;51606;45.000;38.612;2024-01-15T09:16:00;11.24;79.66
65040;HTU21D;51606;45.000;38.612;2024-01-15T09:18:28;11.27;79.56
65040;HTU21D;51606;45.000;38.612;2024-01-15T09:20:54;11.23;79.56
65040;HTU21D;51606;45.000;38.612;2024-01-15T09:23:21;11.38;79.54
65040;HTU21D;51606;45.000;38.612;2024-01-15T09:25:47;11.48;79.89
65040;HTU21D;51606;45.000;38.612;2024-01-15T09:28:14;11.91;79.89
65040;HTU21D;51606;45.000;38.612;2024-01-15T09:30:41;12.15;79.59
65040;HTU21D;51606;45.000;38.612;2024-01-15T09:33:07;12.30;79.58
65040;HTU21D;51606;45.000;38.612;2024-01-15T09:35:33;12.42;79.45
65040;HTU21D;51606;45.000;38.612;2024-01-15T09:38:00;12.37;79.13
65040;HTU21D;51606;45.000;38.612;2024-01-15T09:40:29;11.98;79.17
65040;HTU21D;51606;45.000;38.612;2024-01-15T09:42:57;11.69;79.37
65040;HTU21D;51606;45.000;38.612;2024-01-15T09:45:23;11.48;79.37
65040;HTU21D;51606;45.000;38.612;2024-01-15T09:47:50;11.45;79.44
65040;HTU21D;51606;45.000;38.612;2024-01-15T09:50:16;11.83;79.36
65040;HTU21D;51606;45.000;38.612;2024-01-15T09:52:43;12.29;78.90
65040;HTU21D;51606;45.000;38.612;2024-01-15T09:55:13;12.67;78.56
65040;HTU21D;51606;45.000;38.612;2024-01-15T09:57:44;12.85;78.46
65040;HTU21D;51606;45.000;38.612;2024-01-15T10:00:12;12.62;78.33
65040;HTU21D;51606;45.000;38.612;2024-01-15T10:02:38;12.20;78.58
65040;HTU21D;51606;45.000;38.612;2024-01-15T10:05:06;11.82;78.85
65040;HTU21D;51606;45.000;38.612;2024-01-15T10:07:35;11.77;79.01
65040;HTU21D;51606;45.000;38.612;2024-01-15T10:10:02;12.03;78.86
65040;HTU21D;51606;45.000;38.612;2024-01-15T10:12:29;12.28;77.85
65040;HTU21D;51606;45.000;38.612;2024-01-15T10:14:56;12.25;76.95
65040;HTU21D;51606;45.000;38.612;2024-01-15T10:17:24;11.99;76.76
65040;HTU21D;51606;45.000;38.612;2024-01-15T10:19:53;11.74;76.95
65040;HTU21D;51606;45.000;38.612;2024-01-15T10:22:19;11.64;76.63
65040;HTU21D;51606;45.000;38.612;2024-01-15T10:24:45;11.56;76.52
65040;HTU21D;51606;45.000;38.612;2024-01-15T10:27:15;11.46;76.27
65040;HTU21D;51606;45.000;38.612;2024-01-15T10:29:42;11.41;76.13
65040;HTU21D;51606;45.000;38.612;2024-01-15T10:32:09;11.29;75.86
65040;HTU21D;51606;45.000;38.612;2024-01-15T10:34:39;11.15;75.89
65040;HTU21D;51606;45.000;38.612;2024-01-15T10:37:09;11.04;75.95
65040;HTU21D;51606;45.000;38.612;2024-01-15T10:39:36;10.92;75.93
65040;HTU21D;51606;45.000;38.612;2024-01-15T10:42:03;10.72;75.97
65040;HTU21D;51606;45.000;38.612;2024-01-15T10:44:30;10.58;76.14
65040;HTU21D;51606;45.000;38.612;2024-01-15T10:46:57;10.48;76.20
65040;HTU21D;51606;45.000;38.612;2024-01-15T10:49:24;10.37;76.14
65040;HTU21D;51606;45.000;38.612;2024-01-15T10:51:53;10.26;76.15
65040;HTU21D;51606;45.000;38.612;2024-01-15T10:54:20;10.22;76.10
65040;HTU21D;51606;45.000;38.612;2024-01-15T10:56:52;10.18;76.01
65040;HTU21D;51606;45.000;38.612;2024-01-15T10:59:22;10.13;75.94
65040;HTU21D;51606;45.000;38.612;2024-01-15T11:01:52;10.09;75.87
65040;HTU21D;51606;45.000;38.612;2024-01-15T11:04:22;10.05;75.72
65040;HTU21D;51606;45.000;38.612;2024-01-15T11:06:52;10.00;75.79
65040;HTU21D;51606;45.000;38.612;2024-01-15T11:09:19;9.96;75.78
65040;HTU21D;51606;45.000;38.612;2024-01-15T11:11:47;9.91;75.75
65040;HTU21D;51606;45.000;38.612;2024-01-15T11:17:02;9.82;75.71
65040;HTU21D;51606;45.000;38.612;2024-01-15T11:19:38;9.78;75.64
65040;HTU21D;51606;45.000;38.612;2024-01-15T11:22:08;9.72;75.64
65040;HTU21D;51606;45.000;38.612;2024-01-15T11:24:39;9.70;75.59
65040;HTU21D;51606;45.000;38.612;2024-01-15T11:27:07;9.64;75.54
65040;HTU21D;51606;45.000;38.612;2024-01-15T11:29:36;9.62;75.54
65040;HTU21D;51606;45.000;38.612;2024-01-15T11:34:53;9.62;75.40
65040;HTU21D;51606;45.000;38.612;2024-01-15T11:37:21;9.65;75.31
65040;HTU21D;51606;45.000;38.612;2024-01-15T11:39:54;9.63;75.21
65040;HTU21D;51606;45.000;38.612;2024-01-15T11:42:22;9.60;75.19
65040;HTU21D;51606;45.000;38.612;2024-01-15T11:44:49;9.57;75.21
65040;HTU21D;51606;45.000;38.612;2024-01-15T11:47:16;9.56;75.20
65040;HTU21D;51606;45.000;38.612;2024-01-15T11:52:37;9.55;75.18
65040;HTU21D;51606;45.000;38.612;2024-01-15T11:55:11;9.61;75.16
65040;HTU21D;51606;45.000;38.612;2024-01-15T11:57:46;9.69;74.99
65040;HTU21D;51606;45.000;38.612;2024-01-15T12:00:13;9.77;74.91
65040;HTU21D;51606;45.000;38.612;2024-01-15T12:02:42;9.83;74.80
65040;HTU21D;51606;45.000;38.612;2024-01-15T12:05:15;9.90;74.67
65040;HTU21D;51606;45.000;38.612;2024-01-15T12:07:43;9.93;74.59
65040;HTU21D;51606;45.000;38.612;2024-01-15T12:10:11;9.93;74.60
65040;HTU21D;51606;45.000;38.612;2024-01-15T12:13:11;9.91;74.56
65040;HTU21D;51606;45.000;38.612;2024-01-15T12:15:31;9.91;74.52
65040;HTU21D;51606;45.000;38.612;2024-01-15T12:17:59;9.89;74.59
65040;HTU21D;51606;45.000;38.612;2024-01-15T12:20:26;9.84;74.58
65040;HTU21D;51606;45.000;38.612;2024-01-15T12:22:53;9.81;74.61
65040;HTU21D;51606;45.000;38.612;2024-01-15T12:34:10;9.63;74.60
65040;HTU21D;51606;45.000;38.612;2024-01-15T12:36:32;9.50;74.73
65040;HTU21D;51606;45.000;38.612;2024-01-15T12:39:01;9.42;74.74
65040;HTU21D;51606;45.000;38.612;2024-01-15T12:41:28;9.33;74.87
65040;HTU21D;51606;45.000;38.612;2024-01-15T12:43:54;9.24;74.93
65040;HTU21D;51606;45.000;38.612;2024-01-15T12:46:21;9.17;75.00
65040;HTU21D;51606;45.000;38.612;2024-01-15T12:48:47;9.07;75.05
65040;HTU21D;51606;45.000;38.612;2024-01-15T12:51:15;8.95;75.19
65040;HTU21D;51606;45.000;38.612;2024-01-15T12:53:41;8.86;75.21
65040;HTU21D;51606;45.000;38.612;2024-01-15T12:56:08;8.79;75.23
65040;HTU21D;51606;45.000;38.612;2024-01-15T12:58:34;8.72;75.25
65040;HTU21D;51606;45.000;38.612;2024-01-15T13:01:00;8.65;75.20
65040;HTU21D;51606;45.000;38.612;2024-01-15T13:03:27;8.60;75.17
65040;HTU21D;51606;45.000;38.612;2024-01-15T13:05:53;8.52;75.09
65040;HTU21D;51606;45.000;38.612;2024-01-15T13:08:19;8.44;75.12
65040;HTU21D;51606;45.000;38.612;2024-01-15T13:10:46;8.34;75.16
65040;HTU21D;51606;45.000;38.612;2024-01-15T13:13:12;8.26;75.21
65040;HTU21D;51606;45.000;38.612;2024-01-15T13:15:39;8.19;75.26
65040;HTU21D;51606;45.000;38.612;2024-01-15T13:18:06;8.13;75.28
65040;HTU21D;51606;45.000;38.612;2024-01-15T13:20:33;8.06;75.29
65040;HTU21D;51606;45.000;38.612;2024-01-15T13:22:59;7.99;75.28
65040;HTU21D;51606;45.000;38.612;2024-01-15T13:25:26;7.89;75.31
65040;HTU21D;51606;45.000;38.612;2024-01-15T13:27:52;7.79;75.41
65040;HTU21D;51606;45.000;38.612;2024-01-15T13:30:18;7.72;75.47
65040;HTU21D;51606;45.000;38.612;2024-01-15T13:32:44;7.63;75.51
65040;HTU21D;51606;45.000;38.612;2024-01-15T13:35:11;7.57;75.50
65040;HTU21D;51606;45.000;38.612;2024-01-15T13:37:39;7.49;75.53
65040;HTU21D;51606;45.000;38.612;2024-01-15T13:40:08;7.42;75.54
65040;HTU21D;51606;45.000;38.612;2024-01-15T13:42:35;7.32;75.56
65040;HTU21D;51606;45.000;38.612;2024-01-15T13:45:05;7.18;75.68
65040;HTU21D;51606;45.000;38.612;2024-01-15T13:47:32;7.04;75.82
65040;HTU21D;51606;45.000;38.612;2024-01-15T13:49:59;6.89;75.95
65040;HTU21D;51606;45.000;38.612;2024-01-15T13:52:25;6.76;76.05
65040;HTU21D;51606;45.000;38.612;2024-01-15T13:54:51;6.64;76.13
65040;HTU21D;51606;45.000;38.612;2024-01-15T13:57:17;6.50;76.24
65040;HTU21D;51606;45.000;38.612;2024-01-15T13:59:45;6.37;76.34
65040;HTU21D;51606;45.000;38.612;2024-01-15T14:02:12;6.27;76.37
65040;HTU21D;51606;45.000;38.612;2024-01-15T14:04:38;6.14;76.39
65040;HTU21D;51606;45.000;38.612;2024-01-15T14:07:05;6.01;76.45
65040;HTU21D;51606;45.000;38.612;2024-01-15T14:09:31;5.86;76.57
65040;HTU21D;51606;45.000;38.612;2024-01-15T14:11:57;5.75;76.66
65040;HTU21D;51606;45.000;38.612;2024-01-15T14:14:24;5.63;76.69
65040;HTU21D;51606;45.000;38.612;2024-01-15T14:16:51;5.49;76.81
65040;HTU21D;51606;45.000;38.612;2024-01-15T14:19:17;5.35;76.92
65040;HTU21D;51606;45.000;38.612;2024-01-15T14:21:44;5.23;76.98
65040;HTU21D;51606;45.000;38.612;2024-01-15T14:24:11;5.11;76.99
65040;HTU21D;51606;45.000;38.612;2024-01-15T14:26:37;5.03;77.04
65040;HTU21D;51606;45.000;38.612;2024-01-15T14:29:03;4.94;77.05
65040;HTU21D;51606;45.000;38.612;2024-01-15T14:31:31;4.84;77.05
65040;HTU21D;51606;45.000;38.612;2024-01-15T14:33:59;4.77;77.03
65040;HTU21D;51606;45.000;38.612;2024-01-15T14:36:25;4.68;77.05
65040;HTU21D;51606;45.000;38.612;2024-01-15T14:38:52;4.61;77.10
65040;HTU21D;51606;45.000;38.612;2024-01-15T14:41:18;4.56;77.07
65040;HTU21D;51606;45.000;38.612;2024-01-15T14:43:45;4.51;77.00
65040;HTU21D;51606;45.000;38.612;2024-01-15T14:46:11;4.47;76.97
65040;HTU21D;51606;45.000;38.612;2024-01-15T14:48:37;4.43;76.93
65040;HTU21D;51606;45.000;38.612;2024-01-15T14:51:04;4.35;76.95
65040;HTU21D;51606;45.000;38.612;2024-01-15T14:53:30;4.29;76.97
65040;HTU21D;51606;45.000;38.612;2024-01-15T14:55:57;4.21;76.98
65040;HTU21D;51606;45.000;38.612;2024-01-15T14:58:23;4.18;76.98
65040;HTU21D;51606;45.000;38.612;2024-01-15T15:00:49;4.14;76.97
65040;HTU21D;51606;45.000;38.612;2024-01-15T15:03:16;4.13;76.97
65040;HTU21D;51606;45.000;38.612;2024-01-15T15:05:43;4.10;76.89
65040;HTU21D;51606;45.000;38.612;2024-01-15T15:08:10;4.12;76.86
65040;HTU21D;51606;45.000;38.612;2024-01-15T15:10:38;4.14;76.76
65040;HTU21D;51606;45.000;38.612;2024-01-15T15:13:06;4.15;76.65
65040;HTU21D;51606;45.000;38.612;2024-01-15T15:15:33;4.17;76.60
65040;HTU21D;51606;45.000;38.612;2024-01-15T15:18:00;4.21;76.53
65040;HTU21D;51606;45.000;38.612;2024-01-15T15:20:26;4.29;76.38
65040;HTU21D;51606;45.000;38.612;2024-01-15T15:22:52;4.33;76.25
65040;HTU21D;51606;45.000;38.612;2024-01-15T15:25:22;4.33;76.18
65040;HTU21D;51606;45.000;38.612;2024-01-15T15:27:49;4.29;76.21
65040;HTU21D;51606;45.000;38.612;2024-01-15T15:30:15;4.27;76.22
65040;HTU21D;51606;45.000;38.612;2024-01-15T15:32:42;4.21;76.35
65040;HTU21D;51606;45.000;38.612;2024-01-15T15:35:09;4.19;76.40
65040;HTU21D;51606;45.000;38.612;2024-01-15T15:37:36;4.17;76.43
65040;HTU21D;51606;45.000;38.612;2024-01-15T15:40:02;4.15;76.38
65040;HTU21D;51606;45.000;38.612;2024-01-15T15:42:29;4.09;76.44
65040;HTU21D;51606;45.000;38.612;2024-01-15T15:44:55;4.02;76.55
65040;HTU21D;51606;45.000;38.612;2024-01-15T15:47:23;3.91;76.69
65040;HTU21D;51606;45.000;38.612;2024-01-15T15:49:50;3.84;76.82
65040;HTU21D;51606;45.000;38.612;2024-01-15T15:52:16;3.74;76.95
65040;HTU21D;51606;45.000;38.612;2024-01-15T15:54:43;3.64;77.13
65040;HTU21D;51606;45.000;38.612;2024-01-15T15:57:09;3.62;77.24
65040;HTU21D;51606;45.000;38.612;2024-01-15T15:59:35;3.65;77.14
65040;HTU21D;51606;45.000;38.612;2024-01-15T16:02:02;3.68;77.09
65040;HTU21D;51606;45.000;38.612;2024-01-15T16:16:04;3.85;76.64
65040;HTU21D;51606;45.000;38.612;2024-01-15T16:18:31;3.88;76.64
65040;HTU21D;51606;45.000;38.612;2024-01-15T16:20:57;3.90;76.55
65040;HTU21D;51606;45.000;38.612;2024-01-15T16:23:24;3.89;76.60
65040;HTU21D;51606;45.000;38.612;2024-01-15T16:25:50;3.92;76.66
65040;HTU21D;51606;45.000;38.612;2024-01-15T16:28:16;3.94;76.60
65040;HTU21D;51606;45.000;38.612;2024-01-15T16:30:42;3.94;76.64
65040;HTU21D;51606;45.000;38.612;2024-01-15T16:33:09;4.00;76.57
65040;HTU21D;51606;45.000;38.612;2024-01-15T16:35:35;4.00;76.48
65040;HTU21D;51606;45.000;38.612;2024-01-15T16:38:01;4.02;76.59
65040;HTU21D;51606;45.000;38.612;2024-01-15T16:40:28;4.04;76.57
65040;HTU21D;51606;45.000;38.612;2024-01-15T16:42:54;4.02;76.54
65040;HTU21D;51606;45.000;38.612;2024-01-15T16:45:21;4.02;76.61
65040;HTU21D;51606;45.000;38.612;2024-01-15T16:47:48;4.04;76.63
65040;HTU21D;51606;45.000;38.612;2024-01-15T16:50:14;4.06;76.60
65040;HTU21D;51606;45.000;38.612;2024-01-15T16:52:41;4.10;76.63
65040;HTU21D;51606;45.000;38.612;2024-01-15T16:55:07;4.18;76.58
65040;HTU21D;51606;45.000;38.612;2024-01-15T16:57:34;4.22;76.50
65040;HTU21D;51606;45.000;38.612;2024-01-15T17:00:00;4.29;76.47
65040;HTU21D;51606;45.000;38.612;2024-01-15T17:02:26;4.37;76.39
65040;HTU21D;51606;45.000;38.612;2024-01-15T17:04:53;4.43;76.29
65040;HTU21D;51606;45.000;38.612;2024-01-15T17:07:19;4.45;76.28
65040;HTU21D;51606;45.000;38.612;2024-01-15T17:09:45;4.44;76.27
65040;HTU21D;51606;45.000;38.612;2024-01-15T17:12:12;4.45;76.37
65040;HTU21D;51606;45.000;38.612;2024-01-15T17:14:38;4.43;76.36